Santa Claus, Georgia
Current Conditions -  °F | °C
As of 9:15 PM on Tuesday 21 Oct 2014 (Local Time) from KVDI Reporting Station
Clear Clear  
Wind Chill: 63°   Ceiling: Unl
Heat Index: 63°   Visibility: 10mi
Dew Point: 54°   Wind: 3mph
Humidity: 72%   Direction: 290°WNW
Pressure: 29.96"   Gusts: NA
Location:  32.1105°N, 82.281°W
Report Text: KVDI 220115Z AUTO 29003KT 10SM CLR 17/12 A2996 RMK AO2
Loading
Personal Weather Stations






























Interactive Weather Map
Tropical Storm Tracking
New forecast layout! Learn more

10-Day Weather Forecast

Advertisements
Track Severe Weather on mobile